Bookmark and Share
Track history (hours):
 

Northwestern

More information available from US FCC via Universal Licensing System and Coast Guard Vessel Documentation Center.

Last reported at 2014-Mar-08 23:09 UTC. Time now 2014-Apr-24 14:04 UTC.
Position N 47°40' W 122°23'.
Warning: this ship's position is 46 days out of date.

Length 38 m; draft 4.3 m.

Type: Fishing. MMSI: 367363350.

NotesDate/timePositionNaut miles runAvg speedWind from/ knotsBaromVisibWave heightAir tempDewpointWater temp
2014-Mar-08 23:09N 47°40' W 122°23'0 0.1
2014-Mar-08 22:51N 47°40' W 122°23'0 0.4
2014-Mar-08 22:36N 47°40' W 122°23'0 2.1
2014-Mar-08 22:34N 47°40' W 122°23'0 0.5
2014-Mar-08 21:33N 47°40' W 122°23'0 0.0
2014-Mar-08 21:33N 47°40' W 122°23'0 0.0
2014-Mar-08 20:53N 47°40' W 122°23'0 0.0
2014-Mar-08 20:53N 47°40' W 122°23'1 2.7
2014-Mar-08 20:33N 47°40' W 122°24'0 0.0
2014-Mar-08 20:33N 47°40' W 122°24'5 4.7
2014-Mar-08 19:33N 47°44' W 122°26'0 9.3
2014-Mar-08 19:32N 47°44' W 122°26'1010.3
2014-Mar-08 18:33N 47°54' W 122°30'24 9.7
2014-Mar-08 16:04N 48°11' W 122°56'713.2
2014-Mar-08 15:33N 48°12' W 123°06'1313.1
2014-Mar-08 14:32N 48°13' W 123°26'1212.5
2014-Mar-08 13:33N 48°13' W 123°44'6710.9
2014-Mar-08 07:26N 48°38' W 125°18'910.4
2014-Mar-08 06:33N 48°42' W 125°31'1110.5
2014-Mar-08 05:32N 48°46' W 125°45'10 9.9
2014-Mar-08 04:33N 48°51' W 125°58'35 8.8
2014-Mar-08 00:33N 49°05' W 126°47'  

Dump ship's entire track history

sailing weather and tide predictions

Northwestern — WDE5199 — position and weather